TimeMDT,TemperatureF,Dew PointF,Humidity,Sea Level PressureIn,VisibilityMPH,Wind Direction,Wind SpeedMPH,Gust SpeedMPH,PrecipitationIn,Events,Conditions,WindDirDegrees,DateUTC
12:53 AM,57.0,48.0,72,30.18,9.0,SSE,9.2,-,N/A,,Scattered Clouds,160,2013-07-02 06:53:00
1:53 AM,57.9,48.0,70,30.17,9.0,SSE,8.1,-,N/A,,Mostly Cloudy,160,2013-07-02 07:53:00
2:53 AM,57.9,46.9,67,30.17,9.0,South,5.8,-,N/A,,Overcast,170,2013-07-02 08:53:00
3:53 AM,55.9,46.0,69,30.17,9.0,SSW,4.6,-,N/A,,Mostly Cloudy,200,2013-07-02 09:53:00
4:53 AM,53.1,46.0,77,30.17,9.0,South,5.8,-,N/A,,Partly Cloudy,170,2013-07-02 10:53:00
5:53 AM,54.0,46.0,75,30.20,8.0,SE,6.9,-,N/A,,Overcast,140,2013-07-02 11:53:00
6:53 AM,55.9,45.0,67,30.18,9.0,SSE,6.9,-,N/A,,Clear,150,2013-07-02 12:53:00
8:53 AM,69.1,42.1,38,30.17,9.0,South,11.5,-,N/A,,Clear,170,2013-07-02 14:53:00
9:53 AM,73.0,42.1,33,30.15,9.0,South,13.8,-,N/A,,Clear,170,2013-07-02 15:53:00
10:53 AM,75.0,43.0,32,30.15,9.0,SE,9.2,19.6,N/A,,Clear,130,2013-07-02 16:53:00
11:53 AM,79.0,44.1,29,30.13,10.0,SE,12.7,19.6,N/A,,Clear,140,2013-07-02 17:53:00
12:53 PM,79.0,43.0,28,30.12,10.0,SSE,10.4,-,N/A,,Clear,160,2013-07-02 18:53:00
1:53 PM,80.1,45.0,29,30.10,10.0,ESE,8.1,-,N/A,,Mostly Cloudy,120,2013-07-02 19:53:00
2:53 PM,80.1,44.1,28,30.08,10.0,ESE,8.1,20.7,N/A,,Partly Cloudy,120,2013-07-02 20:53:00
3:53 PM,80.1,43.0,27,30.07,10.0,Calm,Calm,-,N/A,,Partly Cloudy,0,2013-07-02 21:53:00
4:53 PM,79.0,43.0,28,30.06,10.0,SE,8.1,-,N/A,,Partly Cloudy,130,2013-07-02 22:53:00
5:53 PM,78.1,43.0,29,30.05,10.0,ESE,9.2,-,N/A,,Scattered Clouds,120,2013-07-02 23:53:00
6:53 PM,78.1,44.1,30,30.05,10.0,SSE,9.2,-,N/A,,Clear,150,2013-07-03 00:53:00
7:53 PM,73.9,45.0,35,30.04,10.0,ESE,9.2,-,N/A,,Clear,120,2013-07-03 01:53:00
8:53 PM,66.9,46.0,47,30.05,10.0,ESE,9.2,-,N/A,,Partly Cloudy,120,2013-07-03 02:53:00
9:53 PM,63.0,46.9,56,30.07,10.0,SSE,8.1,-,N/A,,Scattered Clouds,150,2013-07-03 03:53:00
10:53 PM,64.0,45.0,50,30.06,10.0,SSE,8.1,-,N/A,,Mostly Cloudy,160,2013-07-03 04:53:00
11:53 PM,64.0,43.0,46,30.04,10.0,SSE,10.4,-,N/A,,Scattered Clouds,160,2013-07-03 05:53:00